Time;durP1;ratioP1;P1;durP2;ratioP2;P2;SDS_P1;SDS_P2;PMS_P1;PMS_P2;Temp;Humidity;BMP_temperature;BMP_pressure;BME280_temperature;BME280_humidity;BME280_pressure;Samples;Min_cycle;Max_cycle;Signal;HPM_P1;HPM_P2
2022/10/04 00:00:40;;;;;;;23.20;10.17;;;;;;;;;;5056538;28;20629;-68
2022/10/04 00:03:23;;;;;;;29.63;12.53;;;;;;;;;;5056408;28;20174;-68
2022/10/04 00:05:50;;;;;;;28.07;11.27;;;;;;;;;;5056196;28;20217;-68
2022/10/04 00:08:16;;;;;;;26.50;10.67;;;;;;;;;;5038394;28;20597;-68
2022/10/04 00:10:43;;;;;;;26.40;11.30;;;;;;;;;;5056315;28;20174;-69
2022/10/04 00:13:16;;;;;;;18.60;10.23;;;;;;;;;;5056097;28;20178;-68
2022/10/04 00:15:42;;;;;;;21.07;9.13;;;;;;;;;;5056213;28;20205;-69
2022/10/04 00:18:11;;;;;;;14.77;8.03;;;;;;;;;;5055902;28;20198;-68
2022/10/04 00:20:46;;;;;;;14.80;7.77;;;;;;;;;;5037943;28;20186;-69
2022/10/04 00:23:24;;;;;;;18.07;8.23;;;;;;;;;;5037966;28;20202;-68
2022/10/04 00:25:56;;;;;;;21.03;8.07;;;;;;;;;;5055709;28;20185;-68
2022/10/04 00:28:25;;;;;;;17.60;8.10;;;;;;;;;;5055702;28;20728;-68
2022/10/04 00:31:07;;;;;;;24.50;9.00;;;;;;;;;;5055924;28;20182;-69
2022/10/04 00:33:33;;;;;;;16.33;7.37;;;;;;;;;;5037750;28;20186;-68
2022/10/04 00:35:59;;;;;;;19.37;7.90;;;;;;;;;;5037699;28;20270;-68
2022/10/04 00:38:26;;;;;;;20.00;7.57;;;;;;;;;;5055601;28;20285;-69
2022/10/04 00:41:12;;;;;;;14.37;7.40;;;;;;;;;;5037754;28;20182;-68
2022/10/04 00:43:41;;;;;;;14.97;7.93;;;;;;;;;;5055438;28;20174;-69
2022/10/04 00:46:11;;;;;;;16.27;7.47;;;;;;;;;;5055408;28;20211;-68
2022/10/04 00:48:39;;;;;;;13.90;7.43;;;;;;;;;;5055567;28;20254;-69
2022/10/04 00:51:24;;;;;;;15.90;7.63;;;;;;;;;;5037387;28;20673;-69
2022/10/04 00:53:57;;;;;;;11.60;6.73;;;;;;;;;;5055207;28;20224;-68
2022/10/04 00:56:30;;;;;;;13.67;7.00;;;;;;;;;;5055393;28;20584;-69
2022/10/04 00:58:58;;;;;;;14.03;7.40;;;;;;;;;;5054199;28;20679;-68
2022/10/04 01:01:26;;;;;;;12.13;6.83;;;;;;;;;;5036948;28;20228;-68
2022/10/04 01:03:53;;;;;;;15.60;6.97;;;;;;;;;;5054998;28;20175;-68
2022/10/04 01:06:21;;;;;;;13.07;7.13;;;;;;;;;;5037103;28;20710;-69
2022/10/04 01:08:52;;;;;;;16.60;7.20;;;;;;;;;;5037113;28;20605;-68
2022/10/04 01:11:28;;;;;;;13.80;7.23;;;;;;;;;;5054969;28;20217;-68
2022/10/04 01:13:59;;;;;;;15.93;7.67;;;;;;;;;;5055042;28;20595;-68
2022/10/04 01:16:26;;;;;;;14.57;8.30;;;;;;;;;;5037022;28;20222;-68
2022/10/04 01:18:53;;;;;;;13.60;7.50;;;;;;;;;;5054917;28;20544;-68
2022/10/04 01:21:19;;;;;;;14.37;8.10;;;;;;;;;;5054909;28;20178;-68
2022/10/04 01:23:49;;;;;;;19.20;8.00;;;;;;;;;;5037207;28;20182;-68
2022/10/04 01:26:33;;;;;;;12.03;8.07;;;;;;;;;;5055042;28;20174;-68
2022/10/04 01:29:05;;;;;;;16.77;7.73;;;;;;;;;;5055167;28;20277;-69
2022/10/04 01:31:33;;;;;;;16.87;7.80;;;;;;;;;;5054579;28;20174;-68
2022/10/04 01:33:59;;;;;;;14.17;8.23;;;;;;;;;;5054505;28;20202;-68
2022/10/04 01:36:26;;;;;;;14.63;8.20;;;;;;;;;;5036649;28;20295;-69
2022/10/04 01:38:52;;;;;;;15.43;8.10;;;;;;;;;;5054387;28;20191;-68
2022/10/04 01:41:21;;;;;;;11.40;7.13;;;;;;;;;;5036353;28;20182;-68
2022/10/04 01:43:50;;;;;;;19.20;8.40;;;;;;;;;;5036322;28;20654;-68
2022/10/04 01:46:22;;;;;;;15.03;7.27;;;;;;;;;;5054374;28;20206;-68
2022/10/04 01:48:48;;;;;;;13.70;7.30;;;;;;;;;;5036296;28;20204;-68
2022/10/04 01:51:23;;;;;;;15.73;7.93;;;;;;;;;;5054222;28;20182;-68
2022/10/04 01:53:52;;;;;;;16.63;8.10;;;;;;;;;;5036250;28;20213;-68
2022/10/04 01:56:21;;;;;;;18.97;8.27;;;;;;;;;;5054079;28;20250;-68
2022/10/04 01:58:53;;;;;;;16.83;8.30;;;;;;;;;;5054236;28;20218;-68
2022/10/04 02:01:35;;;;;;;13.53;8.13;;;;;;;;;;5054983;28;20208;-68
2022/10/04 02:04:21;;;;;;;17.40;8.67;;;;;;;;;;5055356;28;20177;-68
2022/10/04 02:06:51;;;;;;;14.73;8.13;;;;;;;;;;5055621;28;20182;-68
2022/10/04 02:09:19;;;;;;;17.70;8.27;;;;;;;;;;5056361;28;20205;-68
2022/10/04 02:11:51;;;;;;;17.37;8.57;;;;;;;;;;5056841;28;20214;-68
2022/10/04 02:14:20;;;;;;;13.57;9.33;;;;;;;;;;5057584;28;20191;-68
2022/10/04 02:16:51;;;;;;;15.93;9.37;;;;;;;;;;5058564;28;20234;-68
2022/10/04 02:19:17;;;;;;;15.90;9.90;;;;;;;;;;5055347;28;20632;-68
2022/10/04 02:21:43;;;;;;;19.77;10.67;;;;;;;;;;5053754;28;20174;-69
2022/10/04 02:24:10;;;;;;;16.20;9.70;;;;;;;;;;5053670;28;20175;-68
2022/10/04 02:26:36;;;;;;;20.40;9.63;;;;;;;;;;5035907;28;20552;-69
2022/10/04 02:29:02;;;;;;;23.77;11.33;;;;;;;;;;5055713;28;20198;-68
2022/10/04 02:34:13;;;;;;;26.43;13.00;;;;;;;;;;5056854;28;20202;-68
2022/10/04 02:36:40;;;;;;;25.97;13.17;;;;;;;;;;5035722;28;20178;-68
2022/10/04 02:39:13;;;;;;;22.63;11.57;;;;;;;;;;5035603;28;20204;-68
2022/10/04 02:41:47;;;;;;;21.00;11.90;;;;;;;;;;5035923;28;20182;-68
2022/10/04 02:44:19;;;;;;;18.23;11.23;;;;;;;;;;5035514;28;20185;-68
2022/10/04 02:46:49;;;;;;;20.50;12.43;;;;;;;;;;5035355;28;20612;-69
2022/10/04 02:49:33;;;;;;;17.40;11.27;;;;;;;;;;5053274;28;20205;-69
2022/10/04 02:52:05;;;;;;;19.57;11.50;;;;;;;;;;5053276;28;20264;-69
2022/10/04 02:54:35;;;;;;;28.47;14.93;;;;;;;;;;5053145;28;20553;-68
2022/10/04 02:57:02;;;;;;;38.67;17.40;;;;;;;;;;5053271;28;20602;-68
2022/10/04 02:59:29;;;;;;;44.17;18.50;;;;;;;;;;5035151;28;20553;-68
2022/10/04 03:01:56;;;;;;;37.50;18.87;;;;;;;;;;5053455;28;20519;-68
2022/10/04 03:04:23;;;;;;;26.37;13.87;;;;;;;;;;5053162;28;20611;-69
2022/10/04 03:06:50;;;;;;;29.27;12.90;;;;;;;;;;5053085;28;20178;-68
2022/10/04 03:09:16;;;;;;;20.03;12.07;;;;;;;;;;5053109;28;20749;-68
2022/10/04 03:11:43;;;;;;;25.67;12.20;;;;;;;;;;5053022;28;20178;-69
2022/10/04 03:14:12;;;;;;;22.70;13.00;;;;;;;;;;5034990;28;20198;-69
2022/10/04 03:16:40;;;;;;;20.47;12.67;;;;;;;;;;5052940;28;20170;-68
2022/10/04 03:19:07;;;;;;;20.70;11.80;;;;;;;;;;5052757;28;20325;-68
2022/10/04 03:21:33;;;;;;;24.23;12.03;;;;;;;;;;5035000;28;20185;-69
2022/10/04 03:24:01;;;;;;;21.67;12.63;;;;;;;;;;5055846;28;20178;-68
2022/10/04 03:26:27;;;;;;;19.00;12.97;;;;;;;;;;5057260;28;20182;-69
2022/10/04 03:28:54;;;;;;;19.83;12.40;;;;;;;;;;5056835;28;20202;-68
2022/10/04 03:31:20;;;;;;;19.57;12.50;;;;;;;;;;5056777;28;20187;-68
2022/10/04 03:33:46;;;;;;;20.70;12.03;;;;;;;;;;5056759;28;20638;-69
2022/10/04 03:36:15;;;;;;;24.93;13.20;;;;;;;;;;5039029;28;20244;-69
2022/10/04 03:38:41;;;;;;;28.63;12.50;;;;;;;;;;5056760;28;20204;-68
2022/10/04 03:41:09;;;;;;;21.33;12.60;;;;;;;;;;5056909;28;20261;-69
2022/10/04 03:43:38;;;;;;;19.10;11.43;;;;;;;;;;5056922;28;20179;-68
2022/10/04 03:46:04;;;;;;;23.13;11.00;;;;;;;;;;5038659;28;20183;-68
2022/10/04 03:48:38;;;;;;;23.13;10.43;;;;;;;;;;5056458;28;20198;-68
2022/10/04 03:51:06;;;;;;;18.60;10.27;;;;;;;;;;5056686;28;20765;-69
2022/10/04 03:53:41;;;;;;;18.27;10.27;;;;;;;;;;5038519;28;20528;-68
2022/10/04 03:56:22;;;;;;;15.37;10.17;;;;;;;;;;5056665;28;20162;-68
2022/10/04 03:58:49;;;;;;;21.97;9.63;;;;;;;;;;5056222;28;20271;-68
2022/10/04 04:01:19;;;;;;;12.90;9.03;;;;;;;;;;5056157;28;20174;-68
2022/10/04 04:04:08;;;;;;;17.63;10.50;;;;;;;;;;5038375;28;20182;-68
2022/10/04 04:09:05;;;;;;;18.37;9.90;;;;;;;;;;5055340;22;20231;-67
2022/10/04 04:11:31;;;;;;;12.50;9.47;;;;;;;;;;5038390;28;20647;-67
2022/10/04 04:13:58;;;;;;;17.40;9.90;;;;;;;;;;5019525;28;20258;-67
2022/10/04 04:16:25;;;;;;;17.00;9.87;;;;;;;;;;5037513;28;20174;-67
2022/10/04 04:18:51;;;;;;;16.77;9.30;;;;;;;;;;5036951;28;20231;-67
2022/10/04 04:21:19;;;;;;;22.27;10.37;;;;;;;;;;5019461;28;20194;-67
2022/10/04 04:23:54;;;;;;;16.57;9.50;;;;;;;;;;5019327;28;20208;-67
2022/10/04 04:26:24;;;;;;;15.63;9.50;;;;;;;;;;5019657;28;20175;-67
2022/10/04 04:28:51;;;;;;;20.50;10.40;;;;;;;;;;5018367;28;20203;-67
2022/10/04 04:31:23;;;;;;;17.83;10.17;;;;;;;;;;5036002;28;20650;-68
2022/10/04 04:33:55;;;;;;;22.37;10.07;;;;;;;;;;5017658;28;20175;-67
2022/10/04 04:36:21;;;;;;;17.40;9.77;;;;;;;;;;5036098;28;20173;-67
2022/10/04 04:41:40;;;;;;;20.03;10.37;;;;;;;;;;5019882;28;20237;-67
2022/10/04 04:44:16;;;;;;;14.17;9.80;;;;;;;;;;5017758;28;20183;-67
2022/10/04 04:46:43;;;;;;;17.47;10.13;;;;;;;;;;5035614;28;20170;-67
2022/10/04 04:49:10;;;;;;;17.60;10.00;;;;;;;;;;5035415;28;20262;-67
2022/10/04 04:51:37;;;;;;;18.27;11.00;;;;;;;;;;5035332;28;20183;-67
2022/10/04 04:54:04;;;;;;;16.43;10.87;;;;;;;;;;5035656;28;20214;-67
2022/10/04 04:56:30;;;;;;;16.83;10.17;;;;;;;;;;5035510;28;20697;-67
2022/10/04 04:58:58;;;;;;;15.43;10.77;;;;;;;;;;5035396;28;20195;-67
2022/10/04 05:01:27;;;;;;;18.37;10.53;;;;;;;;;;5035688;28;20325;-67
2022/10/04 05:04:03;;;;;;;16.83;9.73;;;;;;;;;;5035585;28;20175;-67
2022/10/04 05:06:30;;;;;;;22.50;11.07;;;;;;;;;;5035671;28;20182;-67
2022/10/04 05:08:56;;;;;;;17.13;10.83;;;;;;;;;;5035230;28;20282;-67
2022/10/04 05:11:25;;;;;;;16.53;11.13;;;;;;;;;;5035104;28;20638;-67
2022/10/04 05:14:06;;;;;;;16.30;10.00;;;;;;;;;;5034965;28;20183;-68
2022/10/04 05:16:38;;;;;;;21.57;10.27;;;;;;;;;;5034876;28;20240;-67
2022/10/04 05:19:20;;;;;;;15.93;10.93;;;;;;;;;;5034887;28;20191;-67
2022/10/04 05:21:47;;;;;;;16.77;11.10;;;;;;;;;;5035215;28;20493;-67
2022/10/04 05:24:13;;;;;;;21.57;12.17;;;;;;;;;;5034852;28;20180;-67
2022/10/04 05:26:41;;;;;;;21.77;10.90;;;;;;;;;;5035138;28;20183;-68
2022/10/04 05:29:10;;;;;;;16.90;10.83;;;;;;;;;;5016887;28;20191;-67
2022/10/04 05:31:48;;;;;;;17.43;11.43;;;;;;;;;;5034657;28;20179;-68
2022/10/04 05:34:18;;;;;;;24.10;12.37;;;;;;;;;;5034555;28;20282;-68
2022/10/04 05:36:45;;;;;;;21.57;11.23;;;;;;;;;;5016721;28;20182;-67
2022/10/04 05:39:24;;;;;;;17.23;11.33;;;;;;;;;;5016724;28;20179;-67
2022/10/04 05:42:11;;;;;;;16.10;11.47;;;;;;;;;;5034659;28;20221;-67
2022/10/04 05:44:45;;;;;;;22.63;11.97;;;;;;;;;;5034766;28;20164;-67
2022/10/04 05:47:11;;;;;;;18.13;11.40;;;;;;;;;;5016081;28;20210;-67
2022/10/04 05:49:42;;;;;;;20.70;11.73;;;;;;;;;;5016552;28;20215;-67
2022/10/04 05:52:16;;;;;;;24.57;12.13;;;;;;;;;;5034523;28;20301;-67
2022/10/04 05:54:43;;;;;;;25.47;13.67;;;;;;;;;;5034231;28;20317;-67
2022/10/04 05:57:14;;;;;;;33.17;17.40;;;;;;;;;;5034205;28;20201;-68
2022/10/04 05:59:40;;;;;;;25.00;13.67;;;;;;;;;;5034428;28;20175;-68
2022/10/04 06:02:17;;;;;;;22.50;12.63;;;;;;;;;;5034167;28;20744;-68
2022/10/04 06:04:50;;;;;;;18.33;11.87;;;;;;;;;;5034471;28;20171;-68
2022/10/04 06:07:25;;;;;;;20.97;12.40;;;;;;;;;;5034300;28;20567;-68
2022/10/04 06:10:10;;;;;;;16.00;12.07;;;;;;;;;;5034320;28;20333;-68
2022/10/04 06:12:44;;;;;;;18.80;11.50;;;;;;;;;;5034558;28;20181;-69
2022/10/04 06:15:30;;;;;;;17.17;11.20;;;;;;;;;;5016519;28;20206;-69
2022/10/04 06:18:11;;;;;;;23.03;10.37;;;;;;;;;;5033847;28;20201;-66
2022/10/04 06:20:46;;;;;;;18.50;11.23;;;;;;;;;;5016170;28;20178;-66
2022/10/04 06:23:17;;;;;;;13.30;11.30;;;;;;;;;;5033988;28;20253;-68
2022/10/04 06:25:47;;;;;;;18.03;10.07;;;;;;;;;;5034076;28;20175;-68
2022/10/04 06:28:18;;;;;;;17.57;10.07;;;;;;;;;;5033755;28;20289;-67
2022/10/04 06:30:53;;;;;;;21.70;11.20;;;;;;;;;;5034071;28;20265;-67
2022/10/04 06:33:37;;;;;;;21.77;10.40;;;;;;;;;;5034063;28;20166;-67
2022/10/04 06:36:04;;;;;;;15.10;10.00;;;;;;;;;;5015942;28;20635;-67
2022/10/04 06:38:48;;;;;;;16.60;9.63;;;;;;;;;;5033787;28;20317;-67
2022/10/04 06:41:20;;;;;;;15.33;9.30;;;;;;;;;;5033957;28;20156;-67
2022/10/04 06:43:46;;;;;;;15.13;10.23;;;;;;;;;;5034082;28;20537;-69
2022/10/04 06:46:18;;;;;;;18.17;10.20;;;;;;;;;;5033676;28;20182;-68
2022/10/04 06:48:47;;;;;;;14.03;10.50;;;;;;;;;;5033372;28;20195;-66
2022/10/04 06:51:20;;;;;;;19.07;10.30;;;;;;;;;;5033451;28;20186;-67
2022/10/04 06:53:59;;;;;;;13.53;9.20;;;;;;;;;;5033865;28;20163;-70
2022/10/04 06:56:43;;;;;;;15.60;9.17;;;;;;;;;;5015791;28;20212;-67
2022/10/04 06:59:18;;;;;;;13.47;9.47;;;;;;;;;;5015662;28;20175;-67
2022/10/04 07:01:57;;;;;;;21.00;10.90;;;;;;;;;;5015848;28;20197;-67
2022/10/04 07:04:39;;;;;;;17.27;10.30;;;;;;;;;;5015622;28;20187;-67
2022/10/04 07:07:34;;;;;;;17.13;10.13;;;;;;;;;;5015694;28;20713;-68
2022/10/04 07:10:00;;;;;;;19.50;10.23;;;;;;;;;;5015813;28;20182;-67
2022/10/04 07:12:27;;;;;;;18.93;9.93;;;;;;;;;;5033889;28;20179;-67
2022/10/04 07:14:55;;;;;;;23.20;8.93;;;;;;;;;;5015550;28;20214;-67
2022/10/04 07:17:26;;;;;;;24.70;10.30;;;;;;;;;;5033446;28;20201;-67
2022/10/04 07:19:52;;;;;;;22.17;9.97;;;;;;;;;;5034307;28;20505;-67
2022/10/04 07:22:21;;;;;;;14.70;9.70;;;;;;;;;;5016281;28;20195;-67
2022/10/04 07:24:50;;;;;;;16.70;10.17;;;;;;;;;;5034528;28;20190;-65
2022/10/04 07:27:18;;;;;;;22.53;11.00;;;;;;;;;;5034129;28;20207;-68
2022/10/04 07:29:46;;;;;;;16.70;9.70;;;;;;;;;;5015672;28;20179;-67
2022/10/04 07:32:16;;;;;;;18.90;9.77;;;;;;;;;;5015426;28;20183;-67
2022/10/04 07:35:01;;;;;;;16.50;9.77;;;;;;;;;;5033561;28;20289;-67
2022/10/04 07:37:29;;;;;;;18.10;10.13;;;;;;;;;;5032871;28;20206;-67
2022/10/04 07:40:00;;;;;;;16.17;9.80;;;;;;;;;;5032928;28;20225;-67
2022/10/04 07:42:29;;;;;;;23.93;11.20;;;;;;;;;;5033042;28;20517;-68
2022/10/04 07:45:02;;;;;;;21.90;10.57;;;;;;;;;;5033244;28;20186;-67
2022/10/04 07:47:28;;;;;;;20.17;10.97;;;;;;;;;;5015080;28;20714;-67
2022/10/04 07:49:54;;;;;;;18.67;11.20;;;;;;;;;;5032849;28;20551;-67
2022/10/04 07:52:39;;;;;;;21.00;11.13;;;;;;;;;;5032751;28;20182;-67
2022/10/04 07:55:22;;;;;;;16.53;10.33;;;;;;;;;;5032547;28;20214;-67
2022/10/04 07:57:54;;;;;;;17.87;10.33;;;;;;;;;;5015046;28;20195;-67
2022/10/04 08:00:22;;;;;;;21.57;10.70;;;;;;;;;;5032805;28;20179;-68
2022/10/04 08:02:53;;;;;;;21.17;11.30;;;;;;;;;;5033430;28;20539;-67
2022/10/04 08:05:29;;;;;;;19.03;11.53;;;;;;;;;;5033285;28;20167;-67
2022/10/04 08:07:58;;;;;;;23.37;11.73;;;;;;;;;;5032347;28;20206;-67
2022/10/04 08:10:24;;;;;;;21.60;11.67;;;;;;;;;;5018453;28;20229;-67
2022/10/04 08:12:50;;;;;;;15.57;10.60;;;;;;;;;;5018584;28;20179;-67
2022/10/04 08:15:19;;;;;;;21.10;10.87;;;;;;;;;;5018328;28;20207;-67
2022/10/04 08:18:01;;;;;;;17.90;11.70;;;;;;;;;;5036347;28;20241;-66
2022/10/04 08:20:46;;;;;;;17.07;11.03;;;;;;;;;;5018434;28;20570;-67
2022/10/04 08:23:23;;;;;;;17.40;10.47;;;;;;;;;;5036185;28;20175;-67
2022/10/04 08:26:06;;;;;;;19.30;10.73;;;;;;;;;;5036066;28;20171;-67
2022/10/04 08:31:40;;;;;;;22.20;11.20;;;;;;;;;;5036310;28;20174;-67
2022/10/04 08:34:09;;;;;;;23.47;12.57;;;;;;;;;;5018136;28;20266;-67
2022/10/04 08:36:53;;;;;;;19.20;10.37;;;;;;;;;;5035874;28;20205;-67
2022/10/04 08:39:35;;;;;;;13.83;9.50;;;;;;;;;;5017914;28;20179;-67
2022/10/04 08:42:10;;;;;;;20.10;10.87;;;;;;;;;;5036198;28;20164;-68
2022/10/04 08:44:42;;;;;;;18.17;11.47;;;;;;;;;;5035911;28;20183;-67
2022/10/04 08:47:09;;;;;;;20.70;11.60;;;;;;;;;;5035888;28;20637;-67
2022/10/04 08:49:45;;;;;;;15.50;11.50;;;;;;;;;;5036048;28;20543;-67
2022/10/04 08:52:20;;;;;;;18.07;11.57;;;;;;;;;;5018119;28;20179;-68
2022/10/04 08:55:10;;;;;;;17.80;11.27;;;;;;;;;;5018086;28;20206;-66
2022/10/04 08:57:55;;;;;;;19.90;10.73;;;;;;;;;;5035742;28;20195;-68
2022/10/04 09:00:21;;;;;;;25.03;11.40;;;;;;;;;;5035891;28;20183;-68
2022/10/04 09:03:03;;;;;;;20.10;9.97;;;;;;;;;;5036293;28;20176;-67
2022/10/04 09:05:48;;;;;;;14.17;9.00;;;;;;;;;;5017617;28;20183;-67
2022/10/04 09:08:33;;;;;;;14.17;9.07;;;;;;;;;;5035149;28;20210;-67
2022/10/04 09:11:11;;;;;;;19.87;10.47;;;;;;;;;;5017944;28;20214;-69
2022/10/04 09:13:46;;;;;;;15.23;8.87;;;;;;;;;;5036251;28;20202;-68
2022/10/04 09:16:35;;;;;;;18.30;9.50;;;;;;;;;;5035666;28;20278;-67
2022/10/04 09:19:01;;;;;;;21.93;10.20;;;;;;;;;;5034602;28;20195;-65
2022/10/04 09:21:27;;;;;;;17.17;10.27;;;;;;;;;;5016625;28;20269;-66
2022/10/04 09:24:14;;;;;;;17.10;11.53;;;;;;;;;;5035173;28;20172;-66
2022/10/04 09:26:55;;;;;;;14.80;10.17;;;;;;;;;;5017137;28;20525;-66
2022/10/04 09:29:36;;;;;;;16.60;11.20;;;;;;;;;;5035211;28;20262;-66
2022/10/04 09:32:08;;;;;;;17.63;10.57;;;;;;;;;;5034938;28;20167;-67
2022/10/04 09:34:37;;;;;;;16.37;9.83;;;;;;;;;;5017360;28;20253;-67
2022/10/04 09:37:22;;;;;;;17.40;10.33;;;;;;;;;;5017211;28;20199;-70
2022/10/04 09:39:48;;;;;;;18.90;10.63;;;;;;;;;;5017141;28;20178;-67
2022/10/04 09:42:37;;;;;;;25.33;11.07;;;;;;;;;;5017109;28;20182;-67
2022/10/04 09:45:20;;;;;;;18.87;10.80;;;;;;;;;;5035004;28;20159;-68
2022/10/04 09:47:50;;;;;;;18.67;10.97;;;;;;;;;;5017160;28;20253;-68
2022/10/04 09:50:25;;;;;;;21.00;10.43;;;;;;;;;;5017223;28;20250;-69
2022/10/04 09:53:02;;;;;;;15.97;9.43;;;;;;;;;;5035470;28;20185;-69
2022/10/04 09:55:34;;;;;;;17.23;10.23;;;;;;;;;;5017753;28;20210;-69
2022/10/04 09:58:02;;;;;;;15.70;9.90;;;;;;;;;;5037061;28;20191;-68
2022/10/04 10:00:34;;;;;;;15.90;9.60;;;;;;;;;;5034569;28;20273;-69
2022/10/04 10:03:11;;;;;;;13.40;8.67;;;;;;;;;;5034180;28;20179;-68
2022/10/04 10:05:39;;;;;;;15.40;8.70;;;;;;;;;;5034440;28;20167;-68
2022/10/04 10:08:11;;;;;;;17.07;8.83;;;;;;;;;;5033978;28;20241;-68
2022/10/04 10:13:41;;;;;;;16.90;9.77;;;;;;;;;;5034160;28;20654;-68
2022/10/04 10:16:07;;;;;;;20.37;10.60;;;;;;;;;;5034348;28;20195;-69
2022/10/04 10:18:36;;;;;;;19.83;11.27;;;;;;;;;;5016339;28;20616;-69
2022/10/04 10:23:58;;;;;;;13.13;7.07;;;;;;;;;;5052353;28;20256;-68
2022/10/04 10:26:30;;;;;;;12.03;6.73;;;;;;;;;;5053641;28;20202;-68
2022/10/04 10:29:15;;;;;;;9.50;6.23;;;;;;;;;;5053886;28;20155;-68
2022/10/04 10:31:55;;;;;;;7.50;5.70;;;;;;;;;;5053422;28;20611;-68
2022/10/04 10:34:21;;;;;;;11.40;6.10;;;;;;;;;;5053657;28;20328;-69
2022/10/04 10:37:06;;;;;;;10.40;6.00;;;;;;;;;;5035551;28;20654;-69
2022/10/04 10:39:42;;;;;;;7.50;5.10;;;;;;;;;;5053320;28;20174;-68
2022/10/04 10:42:20;;;;;;;10.10;5.47;;;;;;;;;;5053340;28;20201;-68
2022/10/04 10:44:55;;;;;;;10.13;5.40;;;;;;;;;;5053700;28;20166;-69
2022/10/04 10:47:39;;;;;;;11.57;5.70;;;;;;;;;;5053331;28;20186;-68
2022/10/04 10:50:18;;;;;;;9.40;5.83;;;;;;;;;;5035410;28;20186;-69
2022/10/04 10:52:54;;;;;;;15.70;6.07;;;;;;;;;;5053376;28;20202;-68
2022/10/04 10:55:49;;;;;;;10.90;6.23;;;;;;;;;;5053303;28;20689;-68
2022/10/04 10:58:32;;;;;;;11.80;5.90;;;;;;;;;;4933303;28;20190;-68
2022/10/04 11:01:27;;;;;;;10.33;6.00;;;;;;;;;;5053298;28;20170;-68
2022/10/04 11:03:53;;;;;;;7.37;5.50;;;;;;;;;;5035315;28;20202;-68
2022/10/04 11:06:38;;;;;;;10.57;5.40;;;;;;;;;;5054473;28;20178;-69
2022/10/04 11:09:23;;;;;;;8.33;5.63;;;;;;;;;;5036058;28;20183;-68
2022/10/04 11:12:27;;;;;;;10.70;6.30;;;;;;;;;;5037514;28;20293;-68
2022/10/04 11:15:29;;;;;;;12.27;6.13;;;;;;;;;;4920384;29;20202;-68
2022/10/04 11:17:55;;;;;;;9.53;6.20;;;;;;;;;;4843693;29;20594;-68
2022/10/04 11:20:23;;;;;;;15.23;5.63;;;;;;;;;;4988001;28;20182;-68
2022/10/04 11:23:10;;;;;;;7.00;4.80;;;;;;;;;;5053127;28;20220;-68
2022/10/04 11:25:45;;;;;;;7.27;4.43;;;;;;;;;;5053162;28;20509;-68
2022/10/04 11:28:21;;;;;;;5.73;4.40;;;;;;;;;;5035196;28;20595;-68
2022/10/04 11:31:09;;;;;;;8.07;4.50;;;;;;;;;;5035440;28;20178;-68
2022/10/04 11:33:35;;;;;;;7.73;4.77;;;;;;;;;;5035327;28;20262;-68
2022/10/04 11:36:06;;;;;;;7.87;4.47;;;;;;;;;;5052844;28;20639;-67
2022/10/04 11:38:55;;;;;;;8.33;4.53;;;;;;;;;;5035027;28;20597;-67
2022/10/04 11:41:29;;;;;;;7.20;4.40;;;;;;;;;;5034789;28;20185;-67
2022/10/04 11:43:58;;;;;;;8.43;4.40;;;;;;;;;;5054706;28;20162;-65
2022/10/04 11:46:44;;;;;;;9.20;5.17;;;;;;;;;;5038801;28;20641;-66
2022/10/04 11:49:29;;;;;;;7.07;5.13;;;;;;;;;;5056330;28;20202;-67
2022/10/04 11:52:12;;;;;;;8.97;4.30;;;;;;;;;;5056841;28;20234;-68
2022/10/04 11:54:41;;;;;;;7.20;4.57;;;;;;;;;;5057127;28;20186;-68
2022/10/04 11:57:26;;;;;;;11.03;4.83;;;;;;;;;;5057188;28;20177;-68
2022/10/04 12:00:15;;;;;;;7.30;4.73;;;;;;;;;;5057431;28;20158;-68
2022/10/04 12:03:08;;;;;;;6.87;4.30;;;;;;;;;;5057794;28;20202;-68
2022/10/04 12:05:34;;;;;;;7.60;4.40;;;;;;;;;;5057279;28;20594;-68
2022/10/04 12:08:18;;;;;;;8.30;5.07;;;;;;;;;;5056711;28;20768;-68
2022/10/04 12:10:49;;;;;;;7.23;4.70;;;;;;;;;;5056757;28;20301;-67
2022/10/04 12:13:25;;;;;;;9.40;4.73;;;;;;;;;;5056248;28;20276;-68
2022/10/04 12:16:11;;;;;;;7.27;4.23;;;;;;;;;;5038412;28;20548;-68
2022/10/04 12:18:54;;;;;;;6.53;4.60;;;;;;;;;;5038001;28;20207;-68
2022/10/04 12:21:42;;;;;;;7.97;5.00;;;;;;;;;;5055712;28;20178;-68
2022/10/04 12:24:14;;;;;;;9.57;5.07;;;;;;;;;;5056213;28;20170;-68
2022/10/04 12:26:44;;;;;;;9.30;4.60;;;;;;;;;;5037894;28;20166;-68
2022/10/04 12:29:10;;;;;;;12.13;5.40;;;;;;;;;;5055862;28;20181;-68
2022/10/04 12:31:44;;;;;;;8.37;4.87;;;;;;;;;;5037731;28;20280;-69
2022/10/04 12:34:16;;;;;;;11.23;5.57;;;;;;;;;;5055774;28;20708;-68
2022/10/04 12:37:00;;;;;;;9.57;5.00;;;;;;;;;;5055852;28;20163;-68
2022/10/04 12:39:32;;;;;;;8.77;4.53;;;;;;;;;;5055607;28;20221;-68
2022/10/04 12:42:17;;;;;;;6.57;4.43;;;;;;;;;;5037539;28;20205;-68
2022/10/04 12:44:46;;;;;;;7.43;4.60;;;;;;;;;;5055939;28;20196;-68
2022/10/04 12:47:37;;;;;;;7.10;4.43;;;;;;;;;;5055542;28;20182;-68
2022/10/04 12:50:03;;;;;;;10.70;5.00;;;;;;;;;;5055367;28;20186;-68
2022/10/04 12:52:37;;;;;;;7.23;4.97;;;;;;;;;;5055230;28;20713;-68
2022/10/04 12:55:19;;;;;;;9.00;4.23;;;;;;;;;;5037297;28;20680;-71
2022/10/04 12:57:48;;;;;;;6.57;4.03;;;;;;;;;;5037371;28;20212;-68
2022/10/04 13:00:21;;;;;;;8.50;3.70;;;;;;;;;;5055357;28;20651;-68
2022/10/04 13:03:06;;;;;;;7.20;3.93;;;;;;;;;;5055123;28;20190;-68
2022/10/04 13:05:51;;;;;;;6.53;4.30;;;;;;;;;;5055224;28;20206;-68
2022/10/04 13:08:22;;;;;;;8.93;4.83;;;;;;;;;;5055031;28;20178;-69
2022/10/04 13:11:03;;;;;;;7.77;4.93;;;;;;;;;;5037165;28;20198;-68
2022/10/04 13:13:35;;;;;;;7.53;4.00;;;;;;;;;;5054882;28;20637;-68
2022/10/04 13:16:21;;;;;;;6.23;3.90;;;;;;;;;;5054888;28;20252;-69
2022/10/04 13:19:05;;;;;;;7.77;3.90;;;;;;;;;;5054730;28;20197;-68
2022/10/04 13:21:49;;;;;;;7.23;3.77;;;;;;;;;;5054815;28;20174;-68
2022/10/04 13:24:24;;;;;;;5.87;4.23;;;;;;;;;;5036811;28;20174;-69
2022/10/04 13:26:53;;;;;;;9.30;4.67;;;;;;;;;;5055029;28;20165;-69
2022/10/04 13:29:31;;;;;;;8.13;4.10;;;;;;;;;;5036735;28;20647;-68
2022/10/04 13:32:16;;;;;;;8.60;4.27;;;;;;;;;;5054437;28;20569;-68
2022/10/04 13:35:01;;;;;;;9.77;5.13;;;;;;;;;;5054498;28;20201;-69
2022/10/04 13:37:34;;;;;;;14.87;5.27;;;;;;;;;;5054716;28;20627;-68
2022/10/04 13:40:00;;;;;;;8.97;5.17;;;;;;;;;;5054558;28;20257;-68
2022/10/04 13:42:46;;;;;;;9.03;5.40;;;;;;;;;;5036484;28;20226;-68
2022/10/04 13:45:17;;;;;;;10.77;5.10;;;;;;;;;;5054285;28;20639;-68
2022/10/04 13:47:46;;;;;;;10.27;4.70;;;;;;;;;;5036334;28;20270;-68
2022/10/04 13:50:23;;;;;;;9.23;5.03;;;;;;;;;;5036310;28;20532;-68
2022/10/04 13:58:27;;;;;;;9.20;5.13;;;;;;;;;;5054205;28;20170;-68
2022/10/04 14:01:05;;;;;;;12.73;5.30;;;;;;;;;;5036464;28;20523;-68
2022/10/04 14:03:31;;;;;;;8.57;4.47;;;;;;;;;;5055512;28;20194;-68
2022/10/04 14:05:57;;;;;;;9.13;4.97;;;;;;;;;;5036971;28;20182;-69
2022/10/04 14:08:41;;;;;;;5.70;4.03;;;;;;;;;;5055295;28;20171;-68
2022/10/04 14:11:26;;;;;;;8.17;5.17;;;;;;;;;;5054624;28;20174;-68
2022/10/04 14:14:11;;;;;;;10.17;5.07;;;;;;;;;;5035964;28;20192;-69
2022/10/04 14:16:57;;;;;;;7.77;4.53;;;;;;;;;;5053841;28;20178;-68
2022/10/04 14:19:26;;;;;;;7.67;4.17;;;;;;;;;;5035850;28;20182;-68
2022/10/04 14:22:13;;;;;;;7.63;5.03;;;;;;;;;;5053595;28;20209;-67
2022/10/04 14:24:48;;;;;;;6.23;3.80;;;;;;;;;;5054232;28;20169;-66
2022/10/04 14:27:33;;;;;;;4.80;2.77;;;;;;;;;;5035683;28;20174;-68
2022/10/04 14:30:17;;;;;;;6.13;3.83;;;;;;;;;;5053970;28;20166;-66
2022/10/04 14:32:46;;;;;;;8.80;3.20;;;;;;;;;;5053521;28;20190;-68
2022/10/04 14:35:15;;;;;;;7.27;3.73;;;;;;;;;;5035702;28;20345;-66
2022/10/04 14:37:59;;;;;;;5.73;3.40;;;;;;;;;;5053713;28;20645;-66
2022/10/04 14:40:33;;;;;;;6.50;3.63;;;;;;;;;;5053790;28;20196;-66
2022/10/04 14:42:59;;;;;;;5.73;3.60;;;;;;;;;;5035563;28;20670;-66
2022/10/04 14:45:44;;;;;;;7.30;3.23;;;;;;;;;;5053575;28;20213;-66
2022/10/04 14:48:37;;;;;;;5.00;3.23;;;;;;;;;;5035878;28;20665;-66
2022/10/04 14:51:23;;;;;;;6.00;2.93;;;;;;;;;;5035882;28;20224;-66
2022/10/04 14:54:09;;;;;;;7.43;3.27;;;;;;;;;;5035930;28;20178;-68
2022/10/04 14:56:51;;;;;;;4.90;3.00;;;;;;;;;;5053169;28;20220;-67
2022/10/04 14:59:46;;;;;;;5.50;3.00;;;;;;;;;;5053412;28;20241;-67
2022/10/04 15:02:12;;;;;;;5.83;3.00;;;;;;;;;;5035183;28;20206;-67
2022/10/04 15:04:57;;;;;;;5.27;3.00;;;;;;;;;;5053400;28;20297;-67
2022/10/04 15:07:36;;;;;;;7.97;3.50;;;;;;;;;;5053249;28;20179;-66
2022/10/04 15:10:20;;;;;;;6.87;3.53;;;;;;;;;;5052983;28;20205;-67
2022/10/04 15:12:46;;;;;;;8.87;3.13;;;;;;;;;;5052991;28;20194;-66
2022/10/04 15:15:13;;;;;;;5.53;3.27;;;;;;;;;;5034857;28;20217;-65
2022/10/04 15:17:54;;;;;;;6.50;3.10;;;;;;;;;;5052971;28;20171;-66
2022/10/04 15:20:23;;;;;;;6.73;2.83;;;;;;;;;;5038977;28;20257;-67
2022/10/04 15:22:52;;;;;;;7.93;3.43;;;;;;;;;;5038917;28;20301;-66
2022/10/04 15:25:38;;;;;;;5.60;3.07;;;;;;;;;;5039120;28;20244;-67
2022/10/04 15:28:08;;;;;;;5.30;3.00;;;;;;;;;;5056978;28;20174;-66
2022/10/04 15:30:33;;;;;;;6.27;2.77;;;;;;;;;;5057394;28;20182;-66